createdAt,value
2019-02-08T00:00:50.760Z,53.58
2019-02-08T00:03:20.187Z,45.00
2019-02-08T00:05:49.547Z,44.90
2019-02-08T00:08:19.026Z,48.52
2019-02-08T00:10:48.460Z,45.67
2019-02-08T00:13:17.894Z,50.20
2019-02-08T00:15:47.269Z,49.98
2019-02-08T00:18:16.689Z,41.30
2019-02-08T00:20:46.093Z,42.83
2019-02-08T00:23:26.017Z,44.88
2019-02-08T00:25:46.505Z,42.62
2019-02-08T00:28:15.866Z,48.00
2019-02-08T00:30:45.250Z,43.90
2019-02-08T00:33:14.651Z,42.93
2019-02-08T00:35:44.001Z,47.03
2019-02-08T00:38:13.375Z,48.75
2019-02-08T00:40:42.894Z,41.77
2019-02-08T00:43:12.259Z,41.00
2019-02-08T00:45:41.655Z,43.65
2019-02-08T00:48:11.090Z,42.25
2019-02-08T00:50:40.484Z,38.50
2019-02-08T00:53:09.831Z,38.20
2019-02-08T00:55:39.633Z,41.58
2019-02-08T00:58:09.004Z,39.45
2019-02-08T01:00:38.365Z,39.15
2019-02-08T01:03:07.787Z,41.53
2019-02-08T01:05:37.152Z,39.75
2019-02-08T01:08:06.511Z,39.60
2019-02-08T01:10:35.952Z,42.05
2019-02-08T01:13:05.292Z,44.75
2019-02-08T01:15:34.660Z,40.48
2019-02-08T01:18:04.103Z,41.30
2019-02-08T01:20:33.450Z,39.78
2019-02-08T01:23:02.832Z,39.35
2019-02-08T01:25:33.307Z,42.25
2019-02-08T01:28:02.694Z,39.60
2019-02-08T01:30:33.095Z,44.45
2019-02-08T01:33:02.545Z,42.05
2019-02-08T01:35:31.895Z,40.78
2019-02-08T01:38:01.536Z,42.48
2019-02-08T01:40:36.467Z,39.88
2019-02-08T01:43:07.174Z,42.73
2019-02-08T01:45:36.626Z,37.17
2019-02-08T01:48:07.786Z,39.42
2019-02-08T01:50:37.169Z,37.20
2019-02-08T01:53:06.839Z,40.33
2019-02-08T01:55:36.253Z,39.18
2019-02-08T01:58:05.625Z,40.83
2019-02-08T02:00:40.022Z,42.25
2019-02-08T02:03:10.207Z,37.30
2019-02-08T02:05:39.583Z,42.30
2019-02-08T02:08:09.054Z,43.85
2019-02-08T02:10:40.558Z,38.98
2019-02-08T02:13:10.251Z,40.50
2019-02-08T02:15:39.688Z,36.83
2019-02-08T02:18:09.607Z,37.17
2019-02-08T02:20:41.070Z,37.30
2019-02-08T02:23:12.172Z,36.33
2019-02-08T02:25:41.565Z,35.33
2019-02-08T02:28:10.975Z,40.15
2019-02-08T02:30:40.336Z,42.38
2019-02-08T02:33:11.644Z,43.85
2019-02-08T02:35:41.383Z,38.48
2019-02-08T02:38:10.855Z,43.17
2019-02-08T02:40:40.247Z,42.83
2019-02-08T02:43:09.735Z,40.17
2019-02-08T02:45:40.369Z,40.55
2019-02-08T02:48:11.484Z,43.02
2019-02-08T02:50:40.926Z,41.55
2019-02-08T02:53:10.350Z,42.70
2019-02-08T02:55:39.748Z,38.63
2019-02-08T02:58:09.137Z,41.75
2019-02-08T03:00:43.934Z,39.27
2019-02-08T03:03:13.851Z,41.98
2019-02-08T03:05:43.224Z,41.68
2019-02-08T03:08:13.981Z,38.60
2019-02-08T03:10:43.341Z,41.30
2019-02-08T03:13:13.487Z,38.23
2019-02-08T03:15:42.948Z,39.08
2019-02-08T03:18:12.381Z,39.60
2019-02-08T03:20:42.085Z,36.28
2019-02-08T03:23:11.533Z,36.77
2019-02-08T03:25:41.015Z,34.90
2019-02-08T03:28:10.358Z,34.00
2019-02-08T03:30:41.404Z,36.55
2019-02-08T03:33:10.766Z,35.73
2019-02-08T03:35:40.152Z,34.38
2019-02-08T03:38:09.553Z,38.15
2019-02-08T03:40:38.929Z,31.87
2019-02-08T03:43:08.480Z,29.57
2019-02-08T03:45:39.622Z,29.90
2019-02-08T03:48:10.400Z,30.35
2019-02-08T03:50:39.774Z,31.45
2019-02-08T03:53:09.683Z,39.08
2019-02-08T03:55:39.416Z,38.50
2019-02-08T03:58:08.767Z,40.08
2019-02-08T04:00:39.821Z,39.53
2019-02-08T04:03:09.251Z,38.73
2019-02-08T04:05:38.622Z,40.00
2019-02-08T04:08:08.082Z,39.50
2019-02-08T04:10:37.446Z,34.18
2019-02-08T04:13:06.815Z,34.80
2019-02-08T04:15:36.349Z,34.50
2019-02-08T04:18:05.783Z,35.92
2019-02-08T04:20:35.164Z,34.13
2019-02-08T04:23:04.583Z,38.20
2019-02-08T04:25:33.955Z,37.05
2019-02-08T04:28:03.348Z,33.05
2019-02-08T04:30:33.362Z,38.58
2019-02-08T04:33:03.263Z,32.98
2019-02-08T04:35:33.237Z,35.20
2019-02-08T04:38:02.669Z,33.73
2019-02-08T04:40:32.029Z,33.08
2019-02-08T04:43:01.410Z,30.08
2019-02-08T04:45:30.837Z,35.08
2019-02-08T04:48:00.270Z,29.75
2019-02-08T04:50:30.042Z,33.65
2019-02-08T04:52:59.452Z,33.78
2019-02-08T04:55:28.829Z,36.63
2019-02-08T04:57:58.198Z,32.20
2019-02-08T05:00:36.524Z,36.95
2019-02-08T05:03:06.461Z,38.25
2019-02-08T05:05:35.834Z,43.17
2019-02-08T05:08:05.312Z,38.28
2019-02-08T05:10:35.256Z,36.05
2019-02-08T05:13:04.801Z,37.88
2019-02-08T05:15:34.239Z,36.90
2019-02-08T05:18:03.601Z,40.28
2019-02-08T05:20:32.990Z,37.70
2019-02-08T05:23:02.408Z,39.40
2019-02-08T05:25:31.803Z,42.48
2019-02-08T05:28:01.163Z,36.50
2019-02-08T05:30:35.746Z,36.58
2019-02-08T05:33:06.458Z,37.88
2019-02-08T05:35:35.817Z,37.67
2019-02-08T05:38:05.252Z,38.92
2019-02-08T05:40:34.621Z,47.93
2019-02-08T05:43:05.563Z,37.15
2019-02-08T05:45:34.973Z,37.63
2019-02-08T05:48:04.634Z,37.15
2019-02-08T05:50:34.001Z,40.15
2019-02-08T05:53:03.390Z,36.13
2019-02-08T05:55:33.036Z,38.53
2019-02-08T05:58:02.391Z,34.85
2019-02-08T06:00:36.225Z,38.25
2019-02-08T06:03:07.171Z,37.10
2019-02-08T06:05:37.103Z,40.33
2019-02-08T06:08:07.555Z,41.60
2019-02-08T06:10:36.920Z,45.10
2019-02-08T06:13:07.651Z,41.42
2019-02-08T06:15:37.327Z,51.15
2019-02-08T06:18:08.023Z,46.45
2019-02-08T06:20:37.590Z,41.42
2019-02-08T06:23:07.359Z,44.55
2019-02-08T06:25:36.724Z,41.68
2019-02-08T06:28:06.312Z,48.30
2019-02-08T06:30:35.767Z,44.75
2019-02-08T06:33:05.300Z,43.25
2019-02-08T06:35:34.687Z,46.37
2019-02-08T06:38:04.093Z,49.42
2019-02-08T06:40:36.182Z,56.77
2019-02-08T06:43:06.171Z,49.53
2019-02-08T06:45:35.581Z,57.50
2019-02-08T06:48:06.706Z,50.05
2019-02-08T06:50:36.095Z,49.08
2019-02-08T06:53:05.878Z,49.67
2019-02-08T06:55:35.286Z,50.15
2019-02-08T06:58:07.698Z,41.73
2019-02-08T07:00:50.489Z,48.40
2019-02-08T07:03:27.793Z,48.40
2019-02-08T07:06:13.664Z,52.05
2019-02-08T07:08:50.420Z,44.53
2019-02-08T07:11:24.105Z,42.55
2019-02-08T07:14:03.982Z,36.33
2019-02-08T07:16:41.191Z,44.75
2019-02-08T07:19:12.218Z,45.48
2019-02-08T07:21:49.202Z,47.13
2019-02-08T07:24:29.492Z,46.58
2019-02-08T07:27:03.439Z,45.33
2019-02-08T07:29:34.488Z,42.65
2019-02-08T07:32:08.504Z,51.63
2019-02-08T07:34:48.586Z,46.37
2019-02-08T07:37:19.601Z,46.92
2019-02-08T07:40:03.158Z,45.23
2019-02-08T07:42:43.330Z,53.70
2019-02-08T07:45:14.980Z,45.70
2019-02-08T07:47:48.815Z,49.08
2019-02-08T07:50:22.820Z,46.53
2019-02-08T07:52:59.645Z,45.35
2019-02-08T07:55:30.693Z,49.98
2019-02-08T07:58:04.577Z,51.10
2019-02-08T08:00:44.496Z,47.70
2019-02-08T08:03:15.554Z,43.45
2019-02-08T08:05:55.788Z,46.18
2019-02-08T08:08:29.670Z,43.08
2019-02-08T08:11:00.718Z,45.25
2019-02-08T08:13:47.711Z,45.05
2019-02-08T08:16:21.457Z,46.70
2019-02-08T08:18:52.460Z,51.63
2019-02-08T08:21:23.520Z,44.45
2019-02-08T08:23:57.074Z,45.75
2019-02-08T08:29:06.908Z,44.85
2019-02-08T08:31:47.143Z,43.35
2019-02-08T08:34:40.940Z,43.42
2019-02-08T08:37:13.651Z,43.75
2019-02-08T08:40:04.288Z,44.90
2019-02-08T08:42:48.701Z,46.23
2019-02-08T08:45:24.038Z,45.75
2019-02-08T08:48:05.867Z,45.00
2019-02-08T08:50:46.846Z,50.58
2019-02-08T08:53:37.809Z,45.83
2019-02-08T08:56:30.249Z,42.55
2019-02-08T08:59:19.434Z,41.50
2019-02-08T09:02:14.976Z,40.23
2019-02-08T09:04:50.287Z,46.80
2019-02-08T09:07:39.296Z,40.28
2019-02-08T09:10:34.546Z,41.48
2019-02-08T09:13:14.670Z,43.45
2019-02-08T09:16:06.483Z,42.62
2019-02-08T09:18:47.874Z,46.20
2019-02-08T09:21:40.304Z,47.45
2019-02-08T09:24:27.919Z,43.08
2019-02-08T09:27:21.459Z,42.53
2019-02-08T09:29:59.933Z,38.98
2019-02-08T09:32:40.987Z,38.45
2019-02-08T09:35:46.905Z,61.73
2019-02-08T09:38:37.488Z,43.50
2019-02-08T09:41:15.924Z,39.85
2019-02-08T09:44:00.560Z,42.20
2019-02-08T09:46:42.249Z,37.42
2019-02-08T09:49:34.722Z,35.40
2019-02-08T09:52:27.177Z,33.95
2019-02-08T09:55:18.302Z,36.40
2019-02-08T09:57:59.743Z,40.03
2019-02-08T10:01:01.359Z,41.28
2019-02-08T10:03:50.062Z,44.23
2019-02-08T10:06:40.602Z,46.15
2019-02-08T10:09:34.172Z,47.50
2019-02-08T10:12:23.340Z,47.17
2019-02-08T10:15:04.742Z,46.02
2019-02-08T10:18:01.944Z,52.30
2019-02-08T10:20:40.317Z,42.78
2019-02-08T10:23:31.171Z,41.83
2019-02-08T10:26:12.422Z,42.33
2019-02-08T10:29:08.004Z,44.93
2019-02-08T10:31:55.289Z,46.42
2019-02-08T10:34:53.797Z,48.83
2019-02-08T10:38:00.066Z,45.10
2019-02-08T10:40:51.820Z,50.05
2019-02-08T10:43:48.920Z,50.35
2019-02-08T10:46:47.007Z,49.73
2019-02-08T10:49:52.840Z,46.75
2019-02-08T10:52:42.020Z,49.13
2019-02-08T10:55:26.522Z,56.75
2019-02-08T10:58:31.224Z,53.23
2019-02-08T11:01:41.666Z,56.18
2019-02-08T11:04:27.629Z,62.05
2019-02-08T11:07:29.057Z,56.98
2019-02-08T11:10:32.329Z,51.15
2019-02-08T11:13:13.202Z,52.43
2019-02-08T11:16:08.464Z,51.00
2019-02-08T11:19:01.888Z,52.65
2019-02-08T11:21:31.305Z,52.10
2019-02-08T11:24:00.671Z,51.13
2019-02-08T11:26:30.129Z,53.92
2019-02-08T11:28:59.644Z,65.90
2019-02-08T11:31:29.008Z,54.10
2019-02-08T11:33:58.393Z,57.65
2019-02-08T11:36:28.871Z,53.63
2019-02-08T11:38:58.255Z,56.42
2019-02-08T11:41:27.692Z,47.83
2019-02-08T11:43:57.117Z,56.08
2019-02-08T11:46:26.463Z,45.30
2019-02-08T11:48:55.898Z,52.58
2019-02-08T11:51:25.403Z,50.60
2019-02-08T11:53:54.772Z,54.38
2019-02-08T11:56:29.851Z,58.20
2019-02-08T11:58:55.216Z,59.67
2019-02-08T12:01:24.593Z,54.23
2019-02-08T12:03:53.956Z,59.18
2019-02-08T12:06:24.103Z,54.48
2019-02-08T12:08:53.589Z,63.05
2019-02-08T12:11:22.953Z,57.83
2019-02-08T12:13:52.413Z,54.85
2019-02-08T12:16:22.361Z,55.23
2019-02-08T12:18:51.745Z,55.73
2019-02-08T12:21:21.209Z,56.15
2019-02-08T12:23:50.581Z,55.58
2019-02-08T12:26:19.962Z,56.68
2019-02-08T12:28:49.752Z,54.00
2019-02-08T12:31:19.115Z,52.75
2019-02-08T12:33:48.476Z,56.08
2019-02-08T12:36:17.893Z,60.03
2019-02-08T12:38:48.326Z,62.17
2019-02-08T12:41:17.683Z,52.13
2019-02-08T12:43:47.084Z,51.45
2019-02-08T12:46:16.437Z,53.13
2019-02-08T12:48:45.804Z,61.18
2019-02-08T12:51:15.558Z,54.33
2019-02-08T12:53:44.934Z,61.00
2019-02-08T12:56:14.324Z,54.98
2019-02-08T12:58:43.741Z,64.22
2019-02-08T13:01:13.105Z,57.43
2019-02-08T13:03:42.487Z,59.10
2019-02-08T13:06:11.891Z,55.92
2019-02-08T13:08:41.274Z,61.88
2019-02-08T13:11:10.645Z,57.38
2019-02-08T13:13:40.048Z,53.83
2019-02-08T13:16:09.407Z,66.05
2019-02-08T13:18:38.770Z,59.70
2019-02-08T13:21:08.182Z,56.25
2019-02-08T13:23:37.557Z,54.23
2019-02-08T13:26:06.923Z,54.27
2019-02-08T13:28:36.368Z,57.78
2019-02-08T13:31:05.718Z,59.77
2019-02-08T13:33:35.087Z,50.73
2019-02-08T13:36:07.128Z,54.25
2019-02-08T13:38:36.505Z,57.78
2019-02-08T13:41:05.858Z,50.12
2019-02-08T13:43:35.243Z,54.85
2019-02-08T13:46:04.626Z,49.23
2019-02-08T13:48:33.991Z,74.10
2019-02-08T13:51:03.418Z,52.93
2019-02-08T13:53:32.783Z,66.42
2019-02-08T13:56:02.166Z,52.10
2019-02-08T13:58:31.596Z,49.00
2019-02-08T14:01:00.978Z,51.18
2019-02-08T14:03:30.762Z,54.20
2019-02-08T14:06:00.171Z,56.50
2019-02-08T14:08:29.530Z,53.60
2019-02-08T14:10:58.907Z,55.50
2019-02-08T14:13:28.340Z,51.37
2019-02-08T14:15:57.701Z,44.05
2019-02-08T14:18:27.086Z,47.75
2019-02-08T14:20:56.497Z,49.98
2019-02-08T14:23:25.880Z,50.15
2019-02-08T14:25:55.254Z,48.63
2019-02-08T14:28:24.724Z,47.43
2019-02-08T14:30:54.093Z,49.15
2019-02-08T14:33:23.467Z,48.23
2019-02-08T14:35:52.913Z,47.05
2019-02-08T14:38:22.314Z,50.38
2019-02-08T14:40:51.653Z,62.00
2019-02-08T14:43:21.061Z,59.85
2019-02-08T14:45:50.436Z,49.15
2019-02-08T14:48:19.822Z,48.52
2019-02-08T14:50:49.240Z,52.45
2019-02-08T14:53:18.610Z,94.83
2019-02-08T14:55:47.988Z,65.50
2019-02-08T14:58:17.459Z,51.48
2019-02-08T15:00:46.831Z,49.00
2019-02-08T15:03:16.181Z,49.00
2019-02-08T15:05:45.688Z,59.55
2019-02-08T15:08:16.728Z,47.08
2019-02-08T15:10:51.462Z,44.95
2019-02-08T15:13:20.833Z,49.65
2019-02-08T15:15:50.291Z,54.70
2019-02-08T15:18:19.697Z,51.55
2019-02-08T15:20:49.063Z,48.28
2019-02-08T15:23:18.443Z,53.58
2019-02-08T15:25:47.845Z,48.80
2019-02-08T15:28:17.207Z,50.65
2019-02-08T15:30:47.031Z,45.17
2019-02-08T15:33:16.453Z,51.55
2019-02-08T15:35:45.839Z,42.33
2019-02-08T15:38:15.203Z,46.35
2019-02-08T15:40:50.390Z,48.17
2019-02-08T15:43:21.215Z,51.25
2019-02-08T15:45:55.781Z,51.08
2019-02-08T15:48:25.267Z,41.95
2019-02-08T15:50:54.654Z,46.23
2019-02-08T15:53:24.123Z,49.25
2019-02-08T15:55:56.892Z,47.35
2019-02-08T15:58:26.343Z,48.13
2019-02-08T16:00:55.712Z,49.50
2019-02-08T16:03:25.099Z,53.90
2019-02-08T16:05:54.503Z,47.15
2019-02-08T16:08:23.896Z,49.05
2019-02-08T16:10:53.261Z,54.05
2019-02-08T16:13:24.110Z,52.95
2019-02-08T16:15:53.478Z,48.92
2019-02-08T16:18:23.501Z,59.70
2019-02-08T16:20:52.958Z,53.78
2019-02-08T16:23:22.343Z,52.85
2019-02-08T16:25:52.041Z,50.33
2019-02-08T16:28:21.475Z,52.75
2019-02-08T16:30:51.219Z,56.88
2019-02-08T16:33:20.595Z,55.73
2019-02-08T16:35:50.012Z,52.00
2019-02-08T16:38:19.389Z,55.00
2019-02-08T16:40:48.807Z,58.00
2019-02-08T16:43:19.887Z,62.13
2019-02-08T16:45:49.349Z,58.52
2019-02-08T16:48:18.721Z,56.45
2019-02-08T16:50:48.154Z,56.48
2019-02-08T16:53:17.531Z,62.62
2019-02-08T16:55:46.900Z,74.20
2019-02-08T16:58:16.368Z,58.70
2019-02-08T17:00:45.726Z,58.08
2019-02-08T17:03:15.167Z,58.85
2019-02-08T17:05:44.650Z,57.43
2019-02-08T17:08:14.006Z,48.05
2019-02-08T17:10:43.383Z,53.17
2019-02-08T17:13:12.805Z,56.20
2019-02-08T17:15:42.171Z,50.30
2019-02-08T17:18:11.534Z,53.78
2019-02-08T17:20:46.919Z,51.95
2019-02-08T17:23:16.292Z,49.08
2019-02-08T17:25:45.682Z,62.40
2019-02-08T17:28:15.481Z,56.28
2019-02-08T17:30:44.831Z,53.75
2019-02-08T17:33:14.224Z,46.15
2019-02-08T17:35:43.621Z,54.33
2019-02-08T17:38:13.397Z,59.18
2019-02-08T17:40:45.786Z,56.23
2019-02-08T17:43:15.158Z,52.10
2019-02-08T17:45:44.547Z,53.08
2019-02-08T17:48:15.687Z,59.00
2019-02-08T17:50:45.043Z,61.48
2019-02-08T17:53:15.504Z,50.85
2019-02-08T17:55:44.966Z,60.70
2019-02-08T17:58:14.350Z,53.15
2019-02-08T18:00:55.508Z,59.42
2019-02-08T18:03:24.934Z,62.38
2019-02-08T18:05:54.298Z,56.55
2019-02-08T18:08:23.736Z,56.37
2019-02-08T18:10:53.090Z,50.43
2019-02-08T18:13:22.526Z,62.30
2019-02-08T18:15:52.353Z,51.10
2019-02-08T18:18:21.727Z,49.15
2019-02-08T18:20:57.058Z,51.77
2019-02-08T18:23:26.811Z,48.78
2019-02-08T18:25:56.188Z,57.83
2019-02-08T18:28:25.631Z,52.93
2019-02-08T18:30:54.994Z,52.88
2019-02-08T18:33:24.359Z,50.83
2019-02-08T18:35:53.761Z,52.15
2019-02-08T18:38:23.142Z,51.75
2019-02-08T18:40:52.500Z,53.23
2019-02-08T18:43:21.909Z,61.75
2019-02-08T18:45:51.294Z,50.28
2019-02-08T18:48:20.646Z,54.10
2019-02-08T18:50:52.509Z,57.45
2019-02-08T18:53:21.880Z,56.75
2019-02-08T18:55:51.237Z,56.70
2019-02-08T18:58:21.028Z,49.65
2019-02-08T19:00:52.903Z,50.83
2019-02-08T19:03:23.532Z,46.75
2019-02-08T19:05:53.525Z,49.40
2019-02-08T19:08:22.907Z,47.62
2019-02-08T19:10:52.284Z,46.33
2019-02-08T19:13:21.753Z,49.08
2019-02-08T19:15:51.141Z,51.70
2019-02-08T19:18:20.503Z,56.48
2019-02-08T19:20:49.905Z,43.35
2019-02-08T19:23:19.270Z,47.03
2019-02-08T19:25:49.718Z,48.60
2019-02-08T19:28:26.128Z,51.20
2019-02-08T19:30:50.174Z,48.65
2019-02-08T19:33:19.574Z,51.02
2019-02-08T19:35:49.004Z,47.65
2019-02-08T19:38:18.382Z,49.75
2019-02-08T19:40:48.396Z,55.92
2019-02-08T19:43:18.076Z,46.15
2019-02-08T19:45:47.437Z,50.40
2019-02-08T19:48:16.819Z,52.58
2019-02-08T19:50:47.939Z,55.30
2019-02-08T19:53:17.327Z,46.70
2019-02-08T19:55:46.701Z,47.93
2019-02-08T19:58:16.108Z,54.08
2019-02-08T20:00:46.438Z,49.70
2019-02-08T20:03:15.818Z,53.80
2019-02-08T20:05:45.331Z,53.17
2019-02-08T20:08:14.799Z,49.30
2019-02-08T20:10:46.943Z,46.28
2019-02-08T20:13:16.470Z,51.42
2019-02-08T20:15:45.820Z,45.35
2019-02-08T20:18:15.419Z,47.45
2019-02-08T20:20:44.800Z,50.17
2019-02-08T20:23:15.253Z,46.20
2019-02-08T20:25:46.277Z,46.70
2019-02-08T20:28:17.711Z,51.98
2019-02-08T20:30:47.122Z,43.68
2019-02-08T20:33:16.859Z,47.60
2019-02-08T20:35:46.221Z,39.50
2019-02-08T20:38:15.681Z,43.98
2019-02-08T20:40:50.091Z,44.33
2019-02-08T20:43:19.544Z,43.30
2019-02-08T20:45:48.927Z,46.50
2019-02-08T20:48:20.177Z,51.20
2019-02-08T20:50:49.709Z,51.42
2019-02-08T20:53:19.189Z,43.98
2019-02-08T20:55:49.574Z,51.25
2019-02-08T20:58:19.922Z,46.23
2019-02-08T21:00:50.452Z,43.28
2019-02-08T21:03:19.841Z,42.90
2019-02-08T21:05:49.280Z,43.08
2019-02-08T21:08:18.863Z,39.50
2019-02-08T21:10:48.259Z,41.90
2019-02-08T21:13:17.644Z,36.93
2019-02-08T21:15:47.398Z,37.38
2019-02-08T21:18:16.754Z,39.80
2019-02-08T21:20:46.699Z,44.63
2019-02-08T21:23:16.216Z,45.12
2019-02-08T21:25:52.161Z,48.85
2019-02-08T21:28:16.602Z,43.52
2019-02-08T21:30:46.025Z,54.25
2019-02-08T21:33:15.763Z,43.68
2019-02-08T21:35:45.135Z,45.00
2019-02-08T21:38:14.554Z,39.15
2019-02-08T21:40:43.920Z,38.35
2019-02-08T21:43:13.289Z,35.45
2019-02-08T21:45:43.940Z,35.30
2019-02-08T21:48:13.966Z,41.70
2019-02-08T21:50:43.336Z,34.43
2019-02-08T21:53:12.856Z,39.90
2019-02-08T21:55:42.216Z,44.70
2019-02-08T21:58:11.641Z,44.53
2019-02-08T22:00:42.665Z,47.78
2019-02-08T22:03:12.115Z,42.80
2019-02-08T22:05:53.442Z,41.08
2019-02-08T22:08:22.866Z,37.08
2019-02-08T22:10:52.256Z,44.20
2019-02-08T22:13:21.658Z,41.75
2019-02-08T22:15:51.115Z,36.38
2019-02-08T22:18:20.489Z,42.43
2019-02-08T22:20:49.927Z,48.33
2019-02-08T22:23:19.298Z,47.78
2019-02-08T22:25:48.679Z,46.37
2019-02-08T22:28:18.080Z,36.48
2019-02-08T22:30:47.471Z,36.77
2019-02-08T22:33:16.858Z,37.10
2019-02-08T22:35:46.333Z,35.55
2019-02-08T22:38:15.707Z,38.75
2019-02-08T22:40:46.070Z,35.28
2019-02-08T22:43:16.816Z,33.38
2019-02-08T22:45:46.201Z,36.58
2019-02-08T22:48:15.571Z,42.48
2019-02-08T22:50:44.994Z,39.18
2019-02-08T22:53:14.374Z,36.03
2019-02-08T22:55:43.743Z,40.63
2019-02-08T22:58:13.553Z,44.25
2019-02-08T23:00:55.213Z,40.65
2019-02-08T23:03:25.151Z,43.70
2019-02-08T23:05:55.879Z,41.28
2019-02-08T23:08:25.271Z,44.48
2019-02-08T23:10:54.705Z,42.95
2019-02-08T23:13:24.077Z,43.70
2019-02-08T23:15:53.803Z,43.08
2019-02-08T23:18:23.206Z,48.15
2019-02-08T23:20:53.021Z,52.53
2019-02-08T23:23:22.392Z,77.72
2019-02-08T23:25:51.822Z,74.90
2019-02-08T23:28:21.510Z,72.97
2019-02-08T23:30:50.890Z,57.38
2019-02-08T23:33:20.659Z,52.85
2019-02-08T23:35:50.027Z,54.38
2019-02-08T23:38:19.403Z,60.17
2019-02-08T23:40:48.810Z,45.73
2019-02-08T23:43:18.581Z,45.70
2019-02-08T23:45:47.996Z,40.17
2019-02-08T23:48:17.452Z,38.70
2019-02-08T23:50:46.839Z,47.93
2019-02-08T23:53:16.210Z,40.63
2019-02-08T23:55:45.638Z,43.28
2019-02-08T23:58:15.408Z,36.95
